Weather at A6 Tunnel Western Entrance Helipad

Public forecast

Using degrees Celsius for public forecast. Weather courtesy of forecast.io.

Closest aviation weather report (METAR) to A6 Tunnel Western Entrance Helipad

Closest report is RAF Akrotiri, 9.9 nm (18.4 km) SE.

2024/06/22 17:50 (retrieved 27 minutes ago)

LCRA 221750Z 25007KT CAVOK 27/24 Q1002 NOSIG RMK BLU BLU

Closest aviation forecast (TAF) to A6 Tunnel Western Entrance Helipad

Closest forecast is RAF Akrotiri, 9.9 nm (18.4 km) SE.

2024/06/22 18:39 (retrieved 0 seconds ago)

TAF LCRA 221624Z 2218/2312 25008KT 9999 FEW022 TEMPO 2300/2306 7000 HZ BKN016 PROB40 TEMPO 2300/2306 SCT010 PROB30 TEMPO 2300/2309 16005KT TEMPO 2306/2308 SCT020